Dades meteomassalio
Diari Summary for Febrer 19, 2018 Units:  Both    English   Metric
« Previous Day
Next Day »
Diari Semanal Mensual Anual Personalitzat
  Maxima: Minima: Mijana:
Temperatura: TemperatureC °F /  -17.8 °C 7.2 °F /  -13.8 °C 10.8 °F /  -11.8 °C
Rosada: DewpointC °F /  -17.8 °C 3.7 °F /  -15.7 °C 6.1 °F /  -14.4 °C
Humitat: Humidity % 64 % 73 %
Velocitat del vent: WindSpeedKMH mph /  0 km/h - 19.4 mph /  31.2 km/h
Racha vent: WindSpeedGustKMH mph /  0 km/h - -
Vent:- - NW
Pressio: PressurehPa in /  0 hPa 1017.8 in /  34462.7 hPa -
Pluja: 0.0 in /  0 mm    
Historical Graphs
 
 
Tabular Data for Febrer 19, 2018
Time Temperature Dew Point Pressure Wind Wind Speed Wind Gust Humidity Rainfall Rate (Hourly) solar Conditions
TemperatureC °F /  -17.8 °C DewpointC °F /  -17.8 °C PressurehPa in /  0 hPa Calm     Humidity % HourlyPrecipMM in /  0 mm SolarRadiationWatts/m^2 W/m2 Conditions
00:01 8.3 °F /  -13.2 °C 4.6 °F /  -15.2 °C 1022.6 in /  34625.2 hPa NW 16.7 mph /  26.9 km/h 16.7 mph /  26.9 km/h 77 % 0.0 in /  0 mm 0.0 W/m2 CLR
00:06 8.3 °F /  -13.2 °C 4.6 °F /  -15.2 °C 1022.6 in /  34625.2 hPa NW 18.5 mph /  29.8 km/h 18.5 mph /  29.8 km/h 77 % 0.0 in /  0 mm 0.0 W/m2 CLR
00:11 8.3 °F /  -13.2 °C 4.3 °F /  -15.4 °C 1022.6 in /  34625.2 hPa WNW 20.4 mph /  32.8 km/h 20.4 mph /  32.8 km/h 76 % 0.0 in /  0 mm 0.0 W/m2 CLR
00:16 8.3 °F /  -13.2 °C 4.6 °F /  -15.2 °C 1022.6 in /  34625.2 hPa NW 16.7 mph /  26.9 km/h 16.7 mph /  26.9 km/h 77 % 0.0 in /  0 mm 0.0 W/m2 CLR
00:21 8.9 °F /  -12.8 °C 5.1 °F /  -14.9 °C 1022.6 in /  34625.2 hPa NW 18.5 mph /  29.8 km/h 18.5 mph /  29.8 km/h 77 % 0.0 in /  0 mm 0.0 W/m2 CLR
00:26 8.9 °F /  -12.8 °C 5.1 °F /  -14.9 °C 1022.6 in /  34625.2 hPa WNW 13.0 mph /  20.9 km/h 13.0 mph /  20.9 km/h 77 % 0.0 in /  0 mm 0.0 W/m2 CLR
00:31 8.3 °F /  -13.2 °C 4.6 °F /  -15.2 °C 1022.6 in /  34625.2 hPa NW 20.4 mph /  32.8 km/h 20.4 mph /  32.8 km/h 77 % 0.0 in /  0 mm 0.0 W/m2 CLR
00:36 8.3 °F /  -13.2 °C 4.3 °F /  -15.4 °C 1022.6 in /  34625.2 hPa WNW 18.5 mph /  29.8 km/h 18.5 mph /  29.8 km/h 76 % 0.0 in /  0 mm 0.0 W/m2 CLR
00:41 8.3 °F /  -13.2 °C 4.3 °F /  -15.4 °C 1022.6 in /  34625.2 hPa NW 18.5 mph /  29.8 km/h 18.5 mph /  29.8 km/h 76 % 0.0 in /  0 mm 0.0 W/m2 CLR
00:46 8.3 °F /  -13.2 °C 4.3 °F /  -15.4 °C 1022.6 in /  34625.2 hPa WNW 20.9 mph /  33.6 km/h 20.9 mph /  33.6 km/h 76 % 0.0 in /  0 mm 0.0 W/m2 CLR
00:51 8.9 °F /  -12.8 °C 4.9 °F /  -15.1 °C 1022.2 in /  34611.7 hPa NW 18.5 mph /  29.8 km/h 18.5 mph /  29.8 km/h 76 % 0.0 in /  0 mm 0.0 W/m2 CLR
00:56 8.3 °F /  -13.2 °C 4.3 °F /  -15.4 °C 1022.2 in /  34611.7 hPa NW 19.3 mph /  31.1 km/h 19.3 mph /  31.1 km/h 76 % 0.0 in /  0 mm 0.0 W/m2 CLR
01:01 8.3 °F /  -13.2 °C 4.3 °F /  -15.4 °C 1022.2 in /  34611.7 hPa WNW 18.5 mph /  29.8 km/h 18.5 mph /  29.8 km/h 76 % 0.0 in /  0 mm 0.0 W/m2 CLR
01:06 8.3 °F /  -13.2 °C 4.3 °F /  -15.4 °C 1022.2 in /  34611.7 hPa NW 18.5 mph /  29.8 km/h 18.5 mph /  29.8 km/h 76 % 0.0 in /  0 mm 0.0 W/m2 CLR
01:11 8.3 °F /  -13.2 °C 4.3 °F /  -15.4 °C 1022.2 in /  34611.7 hPa West 20.4 mph /  32.8 km/h 20.4 mph /  32.8 km/h 76 % 0.0 in /  0 mm 0.0 W/m2 CLR
01:16 8.3 °F /  -13.2 °C 4.3 °F /  -15.4 °C 1022.2 in /  34611.7 hPa NW 18.5 mph /  29.8 km/h 18.5 mph /  29.8 km/h 76 % 0.0 in /  0 mm 0.0 W/m2 CLR
01:21 8.9 °F /  -12.8 °C 4.9 °F /  -15.1 °C 1022.2 in /  34611.7 hPa NW 16.1 mph /  25.9 km/h 16.1 mph /  25.9 km/h 76 % 0.0 in /  0 mm 0.0 W/m2 CLR
01:26 8.9 °F /  -12.8 °C 4.9 °F /  -15.1 °C 1022.2 in /  34611.7 hPa WNW 19.3 mph /  31.1 km/h 19.3 mph /  31.1 km/h 76 % 0.0 in /  0 mm 0.0 W/m2 CLR
01:31 8.9 °F /  -12.8 °C 4.9 °F /  -15.1 °C 1022.2 in /  34611.7 hPa NW 18.5 mph /  29.8 km/h 18.5 mph /  29.8 km/h 76 % 0.0 in /  0 mm 0.0 W/m2 CLR
01:36 8.9 °F /  -12.8 °C 4.9 °F /  -15.1 °C 1022.2 in /  34611.7 hPa NW 17.7 mph /  28.5 km/h 17.7 mph /  28.5 km/h 76 % 0.0 in /  0 mm 0.0 W/m2 CLR
01:41 8.9 °F /  -12.8 °C 4.9 °F /  -15.1 °C 1022.2 in /  34611.7 hPa NW 18.5 mph /  29.8 km/h 18.5 mph /  29.8 km/h 76 % 0.0 in /  0 mm 0.0 W/m2 CLR
01:46 8.9 °F /  -12.8 °C 4.9 °F /  -15.1 °C 1021.9 in /  34601.5 hPa WNW 16.7 mph /  26.9 km/h 16.7 mph /  26.9 km/h 76 % 0.0 in /  0 mm 0.0 W/m2 CLR
01:51 8.9 °F /  -12.8 °C 4.7 °F /  -15.2 °C 1021.9 in /  34601.5 hPa WNW 18.5 mph /  29.8 km/h 18.5 mph /  29.8 km/h 75 % 0.0 in /  0 mm 0.0 W/m2 CLR
01:56 8.9 °F /  -12.8 °C 4.9 °F /  -15.1 °C 1021.9 in /  34601.5 hPa NW 18.5 mph /  29.8 km/h 18.5 mph /  29.8 km/h 76 % 0.0 in /  0 mm 0.0 W/m2 CLR
02:01 8.9 °F /  -12.8 °C 4.9 °F /  -15.1 °C 1021.9 in /  34601.5 hPa NW 20.4 mph /  32.8 km/h 20.4 mph /  32.8 km/h 76 % 0.0 in /  0 mm 0.0 W/m2 CLR
02:06 8.9 °F /  -12.8 °C 4.9 °F /  -15.1 °C 1021.9 in /  34601.5 hPa NW 18.5 mph /  29.8 km/h 18.5 mph /  29.8 km/h 76 % 0.0 in /  0 mm 0.0 W/m2 CLR
02:11 8.9 °F /  -12.8 °C 4.9 °F /  -15.1 °C 1021.6 in /  34591.4 hPa NW 18.5 mph /  29.8 km/h 18.5 mph /  29.8 km/h 76 % 0.0 in /  0 mm 0.0 W/m2 CLR
02:16 8.9 °F /  -12.8 °C 4.9 °F /  -15.1 °C 1021.6 in /  34591.4 hPa NW 22.2 mph /  35.7 km/h 22.2 mph /  35.7 km/h 76 % 0.0 in /  0 mm 0.0 W/m2 CLR
02:21 8.9 °F /  -12.8 °C 4.9 °F /  -15.1 °C 1021.6 in /  34591.4 hPa NW 22.2 mph /  35.7 km/h 22.2 mph /  35.7 km/h 76 % 0.0 in /  0 mm 0.0 W/m2 CLR
02:26 8.9 °F /  -12.8 °C 4.9 °F /  -15.1 °C 1021.6 in /  34591.4 hPa NNW 24.1 mph /  38.8 km/h 24.1 mph /  38.8 km/h 76 % 0.0 in /  0 mm 0.0 W/m2 CLR
02:31 8.9 °F /  -12.8 °C 4.9 °F /  -15.1 °C 1021.6 in /  34591.4 hPa WNW 20.9 mph /  33.6 km/h 20.9 mph /  33.6 km/h 76 % 0.0 in /  0 mm 0.0 W/m2 CLR
02:37 8.9 °F /  -12.8 °C 4.9 °F /  -15.1 °C 1021.6 in /  34591.4 hPa NW 20.4 mph /  32.8 km/h 20.4 mph /  32.8 km/h 76 % 0.0 in /  0 mm 0.0 W/m2 CLR
02:42 8.9 °F /  -12.8 °C 4.9 °F /  -15.1 °C 1021.6 in /  34591.4 hPa NW 18.5 mph /  29.8 km/h 18.5 mph /  29.8 km/h 76 % 0.0 in /  0 mm 0.0 W/m2 CLR
02:47 8.9 °F /  -12.8 °C 4.9 °F /  -15.1 °C 1021.6 in /  34591.4 hPa NNW 16.7 mph /  26.9 km/h 16.7 mph /  26.9 km/h 76 % 0.0 in /  0 mm 0.0 W/m2 CLR
02:52 8.9 °F /  -12.8 °C 5.1 °F /  -14.9 °C 1021.6 in /  34591.4 hPa NW 18.5 mph /  29.8 km/h 18.5 mph /  29.8 km/h 77 % 0.0 in /  0 mm 0.0 W/m2 CLR
02:57 8.9 °F /  -12.8 °C 5.1 °F /  -14.9 °C 1021.6 in /  34591.4 hPa NW 18.5 mph /  29.8 km/h 18.5 mph /  29.8 km/h 77 % 0.0 in /  0 mm 0.0 W/m2 CLR
03:02 8.9 °F /  -12.8 °C 5.1 °F /  -14.9 °C 1021.6 in /  34591.4 hPa NW 22.2 mph /  35.7 km/h 22.2 mph /  35.7 km/h 77 % 0.0 in /  0 mm 0.0 W/m2 CLR
03:07 8.9 °F /  -12.8 °C 5.1 °F /  -14.9 °C 1021.6 in /  34591.4 hPa NW 20.4 mph /  32.8 km/h 20.4 mph /  32.8 km/h 77 % 0.0 in /  0 mm 0.0 W/m2 CLR
03:12 8.9 °F /  -12.8 °C 5.1 °F /  -14.9 °C 1021.6 in /  34591.4 hPa NNW 18.5 mph /  29.8 km/h 18.5 mph /  29.8 km/h 77 % 0.0 in /  0 mm 0.0 W/m2 CLR
03:17 8.9 °F /  -12.8 °C 5.1 °F /  -14.9 °C 1021.6 in /  34591.4 hPa NW 24.1 mph /  38.8 km/h 24.1 mph /  38.8 km/h 77 % 0.0 in /  0 mm 0.0 W/m2 CLR
03:22 8.9 °F /  -12.8 °C 5.1 °F /  -14.9 °C 1021.2 in /  34577.8 hPa WNW 20.4 mph /  32.8 km/h 20.4 mph /  32.8 km/h 77 % 0.0 in /  0 mm 0.0 W/m2 CLR
03:27 8.9 °F /  -12.8 °C 5.1 °F /  -14.9 °C 1021.2 in /  34577.8 hPa NW 24.1 mph /  38.8 km/h 24.1 mph /  38.8 km/h 77 % 0.0 in /  0 mm 0.0 W/m2 CLR
03:32 8.9 °F /  -12.8 °C 5.1 °F /  -14.9 °C 1021.2 in /  34577.8 hPa NW 22.2 mph /  35.7 km/h 22.2 mph /  35.7 km/h 77 % 0.0 in /  0 mm 0.0 W/m2 CLR
03:37 8.9 °F /  -12.8 °C 5.1 °F /  -14.9 °C 1021.2 in /  34577.8 hPa NW 16.1 mph /  25.9 km/h 16.1 mph /  25.9 km/h 77 % 0.0 in /  0 mm 0.0 W/m2 CLR
03:42 8.9 °F /  -12.8 °C 5.1 °F /  -14.9 °C 1021.2 in /  34577.8 hPa NW 18.5 mph /  29.8 km/h 18.5 mph /  29.8 km/h 77 % 0.0 in /  0 mm 0.0 W/m2 CLR
03:47 8.9 °F /  -12.8 °C 5.1 °F /  -14.9 °C 1021.2 in /  34577.8 hPa NW 16.7 mph /  26.9 km/h 16.7 mph /  26.9 km/h 77 % 0.0 in /  0 mm 0.0 W/m2 CLR
03:52 8.9 °F /  -12.8 °C 5.1 °F /  -14.9 °C 1020.9 in /  34567.7 hPa WNW 24.1 mph /  38.8 km/h 24.1 mph /  38.8 km/h 77 % 0.0 in /  0 mm 0.0 W/m2 CLR
03:57 8.9 °F /  -12.8 °C 5.1 °F /  -14.9 °C 1020.9 in /  34567.7 hPa WNW 20.4 mph /  32.8 km/h 20.4 mph /  32.8 km/h 77 % 0.0 in /  0 mm 0.0 W/m2 CLR
04:02 8.3 °F /  -13.2 °C 4.6 °F /  -15.2 °C 1020.9 in /  34567.7 hPa NW 22.2 mph /  35.7 km/h 22.2 mph /  35.7 km/h 77 % 0.0 in /  0 mm 0.0 W/m2 CLR
04:07 8.3 °F /  -13.2 °C 4.6 °F /  -15.2 °C 1020.9 in /  34567.7 hPa NW 25.9 mph /  41.7 km/h 25.9 mph /  41.7 km/h 77 % 0.0 in /  0 mm 0.0 W/m2 CLR
04:12 8.3 °F /  -13.2 °C 4.6 °F /  -15.2 °C 1020.9 in /  34567.7 hPa NW 24.1 mph /  38.8 km/h 24.1 mph /  38.8 km/h 77 % 0.0 in /  0 mm 0.0 W/m2 CLR
04:17 8.3 °F /  -13.2 °C 4.6 °F /  -15.2 °C 1020.9 in /  34567.7 hPa NW 18.5 mph /  29.8 km/h 18.5 mph /  29.8 km/h 77 % 0.0 in /  0 mm 0.0 W/m2 CLR
04:22 8.3 °F /  -13.2 °C 4.6 °F /  -15.2 °C 1020.9 in /  34567.7 hPa NW 20.9 mph /  33.6 km/h 20.9 mph /  33.6 km/h 77 % 0.0 in /  0 mm 0.0 W/m2 CLR
04:27 8.3 °F /  -13.2 °C 4.7 °F /  -15.2 °C 1020.5 in /  34554.1 hPa WNW 24.1 mph /  38.8 km/h 24.1 mph /  38.8 km/h 78 % 0.0 in /  0 mm 0.0 W/m2 CLR
04:32 8.3 °F /  -13.2 °C 4.7 °F /  -15.2 °C 1020.5 in /  34554.1 hPa NNW 27.8 mph /  44.7 km/h 27.8 mph /  44.7 km/h 78 % 0.0 in /  0 mm 0.0 W/m2 CLR
04:37 8.3 °F /  -13.2 °C 4.7 °F /  -15.2 °C 1020.5 in /  34554.1 hPa NW 16.7 mph /  26.9 km/h 16.7 mph /  26.9 km/h 78 % 0.0 in /  0 mm 0.0 W/m2 CLR
04:42 8.3 °F /  -13.2 °C 4.7 °F /  -15.2 °C 1020.5 in /  34554.1 hPa NW 18.5 mph /  29.8 km/h 18.5 mph /  29.8 km/h 78 % 0.0 in /  0 mm 0.0 W/m2 CLR
04:47 7.8 °F /  -13.4 °C 4.2 °F /  -15.4 °C 1020.5 in /  34554.1 hPa NW 18.5 mph /  29.8 km/h 18.5 mph /  29.8 km/h 78 % 0.0 in /  0 mm 0.0 W/m2 CLR
04:52 7.8 °F /  -13.4 °C 4.2 °F /  -15.4 °C 1020.5 in /  34554.1 hPa WNW 14.8 mph /  23.8 km/h 14.8 mph /  23.8 km/h 78 % 0.0 in /  0 mm 0.0 W/m2 CLR
04:57 7.8 °F /  -13.4 °C 4.2 °F /  -15.4 °C 1020.9 in /  34567.7 hPa WNW 13.0 mph /  20.9 km/h 13.0 mph /  20.9 km/h 78 % 0.0 in /  0 mm 0.0 W/m2 CLR
05:02 7.8 °F /  -13.4 °C 4.2 °F /  -15.4 °C 1020.9 in /  34567.7 hPa WNW 17.7 mph /  28.5 km/h 17.7 mph /  28.5 km/h 78 % 0.0 in /  0 mm 0.0 W/m2 CLR
05:12 7.8 °F /  -13.4 °C 4.2 °F /  -15.4 °C 1020.9 in /  34567.7 hPa NW 17.7 mph /  28.5 km/h 17.7 mph /  28.5 km/h 78 % 0.0 in /  0 mm 0.0 W/m2 CLR
05:17 7.8 °F /  -13.4 °C 4.2 °F /  -15.4 °C 1020.9 in /  34567.7 hPa WNW 14.8 mph /  23.8 km/h 14.8 mph /  23.8 km/h 78 % 0.0 in /  0 mm 0.0 W/m2 CLR
05:22 7.8 °F /  -13.4 °C 4.2 °F /  -15.4 °C 1020.9 in /  34567.7 hPa NW 18.5 mph /  29.8 km/h 18.5 mph /  29.8 km/h 78 % 0.0 in /  0 mm 0.0 W/m2 CLR
05:27 7.2 °F /  -13.8 °C 3.7 °F /  -15.7 °C 1020.5 in /  34554.1 hPa WNW 14.8 mph /  23.8 km/h 14.8 mph /  23.8 km/h 78 % 0.0 in /  0 mm 0.0 W/m2 CLR
05:32 7.2 °F /  -13.8 °C 3.7 °F /  -15.7 °C 1020.9 in /  34567.7 hPa NW 16.7 mph /  26.9 km/h 16.7 mph /  26.9 km/h 78 % 0.0 in /  0 mm 0.0 W/m2 CLR
05:37 7.8 °F /  -13.4 °C 4.2 °F /  -15.4 °C 1020.5 in /  34554.1 hPa WNW 13.0 mph /  20.9 km/h 13.0 mph /  20.9 km/h 78 % 0.0 in /  0 mm 0.0 W/m2 CLR
05:42 7.8 °F /  -13.4 °C 4.2 °F /  -15.4 °C 1020.5 in /  34554.1 hPa NW 12.9 mph /  20.8 km/h 12.9 mph /  20.8 km/h 78 % 0.0 in /  0 mm 0.0 W/m2 CLR
05:47 7.2 °F /  -13.8 °C 3.7 °F /  -15.7 °C 1020.5 in /  34554.1 hPa NW 18.5 mph /  29.8 km/h 18.5 mph /  29.8 km/h 78 % 0.0 in /  0 mm 0.0 W/m2 CLR
05:52 7.8 °F /  -13.4 °C 4.2 °F /  -15.4 °C 1020.5 in /  34554.1 hPa WNW 16.7 mph /  26.9 km/h 16.7 mph /  26.9 km/h 78 % 0.0 in /  0 mm 0.0 W/m2 CLR
05:57 7.8 °F /  -13.4 °C 4.2 °F /  -15.4 °C 1020.9 in /  34567.7 hPa West 13.0 mph /  20.9 km/h 13.0 mph /  20.9 km/h 78 % 0.0 in /  0 mm 0.0 W/m2 CLR
06:02 7.8 °F /  -13.4 °C 4.2 °F /  -15.4 °C 1020.5 in /  34554.1 hPa WNW 14.8 mph /  23.8 km/h 14.8 mph /  23.8 km/h 78 % 0.0 in /  0 mm 0.0 W/m2 CLR
06:07 7.8 °F /  -13.4 °C 4.2 °F /  -15.4 °C 1020.5 in /  34554.1 hPa NW 13.0 mph /  20.9 km/h 13.0 mph /  20.9 km/h 78 % 0.0 in /  0 mm 0.0 W/m2 CLR
06:12 7.2 °F /  -13.8 °C 3.7 °F /  -15.7 °C 1020.9 in /  34567.7 hPa NW 18.5 mph /  29.8 km/h 18.5 mph /  29.8 km/h 78 % 0.0 in /  0 mm 0.0 W/m2 CLR
06:17 7.8 °F /  -13.4 °C 4.2 °F /  -15.4 °C 1020.5 in /  34554.1 hPa NW 16.7 mph /  26.9 km/h 16.7 mph /  26.9 km/h 78 % 0.0 in /  0 mm 0.0 W/m2 CLR
06:22 7.8 °F /  -13.4 °C 4.2 °F /  -15.4 °C 1020.5 in /  34554.1 hPa WNW 14.8 mph /  23.8 km/h 14.8 mph /  23.8 km/h 78 % 0.0 in /  0 mm 0.0 W/m2 CLR
06:27 7.8 °F /  -13.4 °C 4.2 °F /  -15.4 °C 1020.5 in /  34554.1 hPa WNW 16.1 mph /  25.9 km/h 16.1 mph /  25.9 km/h 78 % 0.0 in /  0 mm 0.0 W/m2 CLR
06:32 7.8 °F /  -13.4 °C 4.2 °F /  -15.4 °C 1020.5 in /  34554.1 hPa NW 13.0 mph /  20.9 km/h 13.0 mph /  20.9 km/h 78 % 0.0 in /  0 mm 0.0 W/m2 CLR
06:37 7.8 °F /  -13.4 °C 4.2 °F /  -15.4 °C 1020.9 in /  34567.7 hPa NW 19.3 mph /  31.1 km/h 19.3 mph /  31.1 km/h 78 % 0.0 in /  0 mm 0.0 W/m2 CLR
06:42 7.8 °F /  -13.4 °C 4.2 °F /  -15.4 °C 1020.5 in /  34554.1 hPa WNW 16.7 mph /  26.9 km/h 16.7 mph /  26.9 km/h 78 % 0.0 in /  0 mm 0.0 W/m2 CLR
06:47 7.8 °F /  -13.4 °C 4.2 °F /  -15.4 °C 1020.5 in /  34554.1 hPa NW 14.8 mph /  23.8 km/h 14.8 mph /  23.8 km/h 78 % 0.0 in /  0 mm 0.0 W/m2 CLR
06:52 7.8 °F /  -13.4 °C 4.2 °F /  -15.4 °C 1020.5 in /  34554.1 hPa WNW 18.5 mph /  29.8 km/h 18.5 mph /  29.8 km/h 78 % 0.0 in /  0 mm 0.0 W/m2 CLR
06:57 7.8 °F /  -13.4 °C 4.2 °F /  -15.4 °C 1020.5 in /  34554.1 hPa NW 16.7 mph /  26.9 km/h 16.7 mph /  26.9 km/h 78 % 0.0 in /  0 mm 0.0 W/m2 CLR
07:02 7.8 °F /  -13.4 °C 4.2 °F /  -15.4 °C 1020.5 in /  34554.1 hPa NW 16.7 mph /  26.9 km/h 16.7 mph /  26.9 km/h 78 % 0.0 in /  0 mm 0.0 W/m2 CLR
07:07 7.8 °F /  -13.4 °C 4.2 °F /  -15.4 °C 1020.5 in /  34554.1 hPa WNW 18.5 mph /  29.8 km/h 18.5 mph /  29.8 km/h 78 % 0.0 in /  0 mm 0.0 W/m2 CLR
07:12 7.8 °F /  -13.4 °C 4.2 °F /  -15.4 °C 1020.5 in /  34554.1 hPa West 18.5 mph /  29.8 km/h 18.5 mph /  29.8 km/h 78 % 0.0 in /  0 mm 0.0 W/m2 CLR
07:17 7.8 °F /  -13.4 °C 4.2 °F /  -15.4 °C 1020.5 in /  34554.1 hPa NW 18.5 mph /  29.8 km/h 18.5 mph /  29.8 km/h 78 % 0.0 in /  0 mm 0.0 W/m2 CLR
07:22 8.3 °F /  -13.2 °C 4.7 °F /  -15.2 °C 1020.9 in /  34567.7 hPa WNW 16.7 mph /  26.9 km/h 16.7 mph /  26.9 km/h 78 % 0.0 in /  0 mm 0.0 W/m2 CLR
07:27 8.3 °F /  -13.2 °C 4.7 °F /  -15.2 °C 1020.9 in /  34567.7 hPa WNW 11.3 mph /  18.2 km/h 11.3 mph /  18.2 km/h 78 % 0.0 in /  0 mm 0.0 W/m2 CLR
07:32 8.3 °F /  -13.2 °C 4.7 °F /  -15.2 °C 1020.9 in /  34567.7 hPa West 13.0 mph /  20.9 km/h 13.0 mph /  20.9 km/h 78 % 0.0 in /  0 mm 0.0 W/m2 CLR
07:37 8.3 °F /  -13.2 °C 4.7 °F /  -15.2 °C 1020.9 in /  34567.7 hPa NW 18.5 mph /  29.8 km/h 18.5 mph /  29.8 km/h 78 % 0.0 in /  0 mm 0.0 W/m2 CLR
07:42 8.3 °F /  -13.2 °C 4.7 °F /  -15.2 °C 1020.9 in /  34567.7 hPa NW 14.8 mph /  23.8 km/h 14.8 mph /  23.8 km/h 78 % 0.0 in /  0 mm 0.0 W/m2 OVC
07:47 8.3 °F /  -13.2 °C 4.7 °F /  -15.2 °C 1020.9 in /  34567.7 hPa WNW 14.8 mph /  23.8 km/h 14.8 mph /  23.8 km/h 78 % 0.0 in /  0 mm 0.0 W/m2 OVC
07:52 8.3 °F /  -13.2 °C 4.7 °F /  -15.2 °C 1020.9 in /  34567.7 hPa NW 13.0 mph /  20.9 km/h 13.0 mph /  20.9 km/h 78 % 0.0 in /  0 mm 0.0 W/m2 OVC
07:57 8.3 °F /  -13.2 °C 4.7 °F /  -15.2 °C 1021.2 in /  34577.8 hPa WNW 13.0 mph /  20.9 km/h 13.0 mph /  20.9 km/h 78 % 0.0 in /  0 mm 0.0 W/m2 OVC
08:02 8.3 °F /  -13.2 °C 4.7 °F /  -15.2 °C 1021.2 in /  34577.8 hPa NW 13.0 mph /  20.9 km/h 13.0 mph /  20.9 km/h 78 % 0.0 in /  0 mm 5.0 W/m2 OVC
08:07 8.3 °F /  -13.2 °C 4.6 °F /  -15.2 °C 1021.2 in /  34577.8 hPa WNW 14.8 mph /  23.8 km/h 14.8 mph /  23.8 km/h 77 % 0.0 in /  0 mm 7.0 W/m2 BKN
08:12 8.3 °F /  -13.2 °C 4.6 °F /  -15.2 °C 1020.9 in /  34567.7 hPa NW 11.1 mph /  17.9 km/h 11.1 mph /  17.9 km/h 77 % 0.0 in /  0 mm 7.0 W/m2 BKN
08:17 8.3 °F /  -13.2 °C 4.6 °F /  -15.2 °C 1021.2 in /  34577.8 hPa WNW 9.3 mph /  15 km/h 9.3 mph /  15 km/h 77 % 0.0 in /  0 mm 16.0 W/m2 BKN
08:22 8.3 °F /  -13.2 °C 4.6 °F /  -15.2 °C 1021.2 in /  34577.8 hPa WNW 9.3 mph /  15 km/h 9.3 mph /  15 km/h 77 % 0.0 in /  0 mm 18.0 W/m2 BKN
08:27 8.9 °F /  -12.8 °C 5.1 °F /  -14.9 °C 1021.2 in /  34577.8 hPa WNW 11.1 mph /  17.9 km/h 11.1 mph /  17.9 km/h 77 % 0.0 in /  0 mm 21.0 W/m2 BKN
08:32 8.9 °F /  -12.8 °C 5.1 °F /  -14.9 °C 1021.2 in /  34577.8 hPa NW 13.0 mph /  20.9 km/h 13.0 mph /  20.9 km/h 77 % 0.0 in /  0 mm 26.0 W/m2 BKN
08:37 8.9 °F /  -12.8 °C 5.1 °F /  -14.9 °C 1021.2 in /  34577.8 hPa WNW 14.5 mph /  23.3 km/h 14.5 mph /  23.3 km/h 77 % 0.0 in /  0 mm 25.0 W/m2 BKN
08:42 8.9 °F /  -12.8 °C 5.1 °F /  -14.9 °C 1021.2 in /  34577.8 hPa NW 14.8 mph /  23.8 km/h 14.8 mph /  23.8 km/h 77 % 0.0 in /  0 mm 37.0 W/m2 BKN
08:47 8.9 °F /  -12.8 °C 4.9 °F /  -15.1 °C 1021.2 in /  34577.8 hPa NW 13.0 mph /  20.9 km/h 13.0 mph /  20.9 km/h 76 % 0.0 in /  0 mm 49.0 W/m2 SCT
08:52 8.9 °F /  -12.8 °C 4.9 °F /  -15.1 °C 1021.2 in /  34577.8 hPa NW 16.7 mph /  26.9 km/h 16.7 mph /  26.9 km/h 76 % 0.0 in /  0 mm 62.0 W/m2 SCT
08:57 9.4 °F /  -12.6 °C 5.4 °F /  -14.8 °C 1021.2 in /  34577.8 hPa NW 14.8 mph /  23.8 km/h 14.8 mph /  23.8 km/h 76 % 0.0 in /  0 mm 69.0 W/m2 SCT
09:02 9.4 °F /  -12.6 °C 5.4 °F /  -14.8 °C 1020.9 in /  34567.7 hPa NW 9.7 mph /  15.6 km/h 9.7 mph /  15.6 km/h 76 % 0.0 in /  0 mm 72.0 W/m2 FEW
09:07 9.4 °F /  -12.6 °C 5.4 °F /  -14.8 °C 1021.2 in /  34577.8 hPa NW 18.5 mph /  29.8 km/h 18.5 mph /  29.8 km/h 76 % 0.0 in /  0 mm 69.0 W/m2 FEW
09:12 9.4 °F /  -12.6 °C 5.4 °F /  -14.8 °C 1021.2 in /  34577.8 hPa NW 18.5 mph /  29.8 km/h 18.5 mph /  29.8 km/h 76 % 0.0 in /  0 mm 72.0 W/m2 FEW
09:17 9.4 °F /  -12.6 °C 5.2 °F /  -14.9 °C 1021.2 in /  34577.8 hPa NNW 22.2 mph /  35.7 km/h 22.2 mph /  35.7 km/h 75 % 0.0 in /  0 mm 70.0 W/m2 FEW
09:22 9.4 °F /  -12.6 °C 5.2 °F /  -14.9 °C 1021.2 in /  34577.8 hPa NW 14.8 mph /  23.8 km/h 14.8 mph /  23.8 km/h 75 % 0.0 in /  0 mm 69.0 W/m2 FEW
09:27 9.4 °F /  -12.6 °C 5.4 °F /  -14.8 °C 1021.2 in /  34577.8 hPa NW 14.5 mph /  23.3 km/h 14.5 mph /  23.3 km/h 76 % 0.0 in /  0 mm 84.0 W/m2 FEW
09:32 9.4 °F /  -12.6 °C 5.4 °F /  -14.8 °C 1021.2 in /  34577.8 hPa WNW 18.5 mph /  29.8 km/h 18.5 mph /  29.8 km/h 76 % 0.0 in /  0 mm 91.0 W/m2 FEW
09:37 10.0 °F /  -12.2 °C 5.8 °F /  -14.6 °C 1021.2 in /  34577.8 hPa WNW 16.7 mph /  26.9 km/h 16.7 mph /  26.9 km/h 75 % 0.0 in /  0 mm 97.0 W/m2 CLR
09:42 10.0 °F /  -12.2 °C 5.8 °F /  -14.6 °C 1021.2 in /  34577.8 hPa WNW 14.8 mph /  23.8 km/h 14.8 mph /  23.8 km/h 75 % 0.0 in /  0 mm 114.0 W/m2 CLR
09:47 10.0 °F /  -12.2 °C 5.8 °F /  -14.6 °C 1021.2 in /  34577.8 hPa WNW 18.5 mph /  29.8 km/h 18.5 mph /  29.8 km/h 75 % 0.0 in /  0 mm 121.0 W/m2 CLR
09:52 10.0 °F /  -12.2 °C 5.6 °F /  -14.7 °C 1021.2 in /  34577.8 hPa WNW 14.8 mph /  23.8 km/h 14.8 mph /  23.8 km/h 74 % 0.0 in /  0 mm 139.0 W/m2 CLR
09:57 10.6 °F /  -11.9 °C 6.1 °F /  -14.4 °C 1021.2 in /  34577.8 hPa NW 24.1 mph /  38.8 km/h 24.1 mph /  38.8 km/h 74 % 0.0 in /  0 mm 156.0 W/m2 CLR
10:02 10.6 °F /  -11.9 °C 6.1 °F /  -14.4 °C 1021.2 in /  34577.8 hPa NW 18.5 mph /  29.8 km/h 18.5 mph /  29.8 km/h 74 % 0.0 in /  0 mm 163.0 W/m2 CLR
10:07 10.6 °F /  -11.9 °C 6.3 °F /  -14.3 °C 1020.9 in /  34567.7 hPa NW 18.5 mph /  29.8 km/h 18.5 mph /  29.8 km/h 75 % 0.0 in /  0 mm 137.0 W/m2 CLR
10:12 10.6 °F /  -11.9 °C 6.3 °F /  -14.3 °C 1020.9 in /  34567.7 hPa NNW 16.7 mph /  26.9 km/h 16.7 mph /  26.9 km/h 75 % 0.0 in /  0 mm 146.0 W/m2 CLR
10:17 10.6 °F /  -11.9 °C 6.1 °F /  -14.4 °C 1020.9 in /  34567.7 hPa NW 18.5 mph /  29.8 km/h 18.5 mph /  29.8 km/h 74 % 0.0 in /  0 mm 181.0 W/m2 CLR
10:22 10.6 °F /  -11.9 °C 6.3 °F /  -14.3 °C 1020.9 in /  34567.7 hPa NNW 16.7 mph /  26.9 km/h 16.7 mph /  26.9 km/h 75 % 0.0 in /  0 mm 197.0 W/m2 CLR
10:27 11.1 °F /  -11.6 °C 6.7 °F /  -14.1 °C 1020.9 in /  34567.7 hPa NW 25.9 mph /  41.7 km/h 25.9 mph /  41.7 km/h 74 % 0.0 in /  0 mm 197.0 W/m2 CLR
10:32 11.1 °F /  -11.6 °C 6.7 °F /  -14.1 °C 1020.9 in /  34567.7 hPa NW 18.5 mph /  29.8 km/h 18.5 mph /  29.8 km/h 74 % 0.0 in /  0 mm 183.0 W/m2 CLR
10:37 11.1 °F /  -11.6 °C 6.4 °F /  -14.2 °C 1020.9 in /  34567.7 hPa WNW 22.2 mph /  35.7 km/h 22.2 mph /  35.7 km/h 73 % 0.0 in /  0 mm 220.0 W/m2 CLR
10:42 11.1 °F /  -11.6 °C 6.4 °F /  -14.2 °C 1020.9 in /  34567.7 hPa NW 13.0 mph /  20.9 km/h 13.0 mph /  20.9 km/h 73 % 0.0 in /  0 mm 190.0 W/m2 CLR
10:47 11.1 °F /  -11.6 °C 6.4 °F /  -14.2 °C 1020.9 in /  34567.7 hPa NW 25.9 mph /  41.7 km/h 25.9 mph /  41.7 km/h 73 % 0.0 in /  0 mm 185.0 W/m2 CLR
10:53 11.1 °F /  -11.6 °C 6.4 °F /  -14.2 °C 1020.9 in /  34567.7 hPa NW 18.5 mph /  29.8 km/h 18.5 mph /  29.8 km/h 73 % 0.0 in /  0 mm 179.0 W/m2 CLR
10:58 11.1 °F /  -11.6 °C 6.4 °F /  -14.2 °C 1020.9 in /  34567.7 hPa NNW 27.8 mph /  44.7 km/h 27.8 mph /  44.7 km/h 73 % 0.0 in /  0 mm 197.0 W/m2 CLR
11:03 11.7 °F /  -11.3 °C 7.0 °F /  -13.9 °C 1020.9 in /  34567.7 hPa NNW 29.6 mph /  47.6 km/h 29.6 mph /  47.6 km/h 73 % 0.0 in /  0 mm 206.0 W/m2 CLR
11:08 11.7 °F /  -11.3 °C 7.0 °F /  -13.9 °C 1020.9 in /  34567.7 hPa NNW 33.3 mph /  53.6 km/h 33.3 mph /  53.6 km/h 73 % 0.0 in /  0 mm 239.0 W/m2 CLR
11:13 11.7 °F /  -11.3 °C 7.0 °F /  -13.9 °C 1020.9 in /  34567.7 hPa NW 20.4 mph /  32.8 km/h 20.4 mph /  32.8 km/h 73 % 0.0 in /  0 mm 160.0 W/m2 CLR
11:18 11.7 °F /  -11.3 °C 6.8 °F /  -14 °C 1020.9 in /  34567.7 hPa NNW 14.8 mph /  23.8 km/h 14.8 mph /  23.8 km/h 72 % 0.0 in /  0 mm 190.0 W/m2 CLR
11:23 11.7 °F /  -11.3 °C 6.8 °F /  -14 °C 1020.9 in /  34567.7 hPa NNW 13.0 mph /  20.9 km/h 15.4 mph /  24.8 km/h 72 % 0.0 in /  0 mm 181.0 W/m2 CLR
11:28 11.7 °F /  -11.3 °C 7.0 °F /  -13.9 °C 1020.5 in /  34554.1 hPa NW 16.7 mph /  26.9 km/h 16.7 mph /  26.9 km/h 73 % 0.0 in /  0 mm 162.0 W/m2 CLR
11:33 11.7 °F /  -11.3 °C 7.0 °F /  -13.9 °C 1020.5 in /  34554.1 hPa NNW 18.5 mph /  29.8 km/h 18.5 mph /  29.8 km/h 73 % 0.0 in /  0 mm 151.0 W/m2 CLR
11:38 11.7 °F /  -11.3 °C 6.8 °F /  -14 °C 1020.5 in /  34554.1 hPa NNW 16.7 mph /  26.9 km/h 16.7 mph /  26.9 km/h 72 % 0.0 in /  0 mm 127.0 W/m2 CLR
11:43 11.7 °F /  -11.3 °C 6.8 °F /  -14 °C 1020.9 in /  34567.7 hPa NNW 22.2 mph /  35.7 km/h 22.2 mph /  35.7 km/h 72 % 0.0 in /  0 mm 158.0 W/m2 CLR
11:48 11.7 °F /  -11.3 °C 6.8 °F /  -14 °C 1020.5 in /  34554.1 hPa NW 20.4 mph /  32.8 km/h 20.4 mph /  32.8 km/h 72 % 0.0 in /  0 mm 211.0 W/m2 CLR
11:53 11.7 °F /  -11.3 °C 6.8 °F /  -14 °C 1020.9 in /  34567.7 hPa NNW 20.9 mph /  33.6 km/h 20.9 mph /  33.6 km/h 72 % 0.0 in /  0 mm 236.0 W/m2 CLR
11:58 12.2 °F /  -11 °C 7.3 °F /  -13.7 °C 1020.5 in /  34554.1 hPa NNW 22.2 mph /  35.7 km/h 22.2 mph /  35.7 km/h 72 % 0.0 in /  0 mm 221.0 W/m2 CLR
12:03 12.2 °F /  -11 °C 7.3 °F /  -13.7 °C 1020.5 in /  34554.1 hPa NNW 24.1 mph /  38.8 km/h 24.1 mph /  38.8 km/h 72 % 0.0 in /  0 mm 185.0 W/m2 CLR
12:08 12.2 °F /  -11 °C 7.1 °F /  -13.8 °C 1020.5 in /  34554.1 hPa NW 18.5 mph /  29.8 km/h 18.5 mph /  29.8 km/h 71 % 0.0 in /  0 mm 148.0 W/m2 CLR
12:13 12.2 °F /  -11 °C 7.3 °F /  -13.7 °C 1020.5 in /  34554.1 hPa NW 16.7 mph /  26.9 km/h 16.7 mph /  26.9 km/h 72 % 0.0 in /  0 mm 142.0 W/m2 CLR
12:18 12.2 °F /  -11 °C 7.3 °F /  -13.7 °C 1020.5 in /  34554.1 hPa NW 18.5 mph /  29.8 km/h 18.5 mph /  29.8 km/h 72 % 0.0 in /  0 mm 172.0 W/m2 CLR
12:23 12.2 °F /  -11 °C 7.1 °F /  -13.8 °C 1020.5 in /  34554.1 hPa NNW 27.8 mph /  44.7 km/h 27.8 mph /  44.7 km/h 71 % 0.0 in /  0 mm 162.0 W/m2 CLR
12:28 12.2 °F /  -11 °C 7.1 °F /  -13.8 °C 1020.5 in /  34554.1 hPa NNW 16.7 mph /  26.9 km/h 16.7 mph /  26.9 km/h 71 % 0.0 in /  0 mm 186.0 W/m2 CLR
12:33 12.2 °F /  -11 °C 7.1 °F /  -13.8 °C 1020.5 in /  34554.1 hPa NNW 13.0 mph /  20.9 km/h 13.0 mph /  20.9 km/h 71 % 0.0 in /  0 mm 220.0 W/m2 CLR
12:38 12.2 °F /  -11 °C 7.1 °F /  -13.8 °C 1020.5 in /  34554.1 hPa NW 16.7 mph /  26.9 km/h 16.7 mph /  26.9 km/h 71 % 0.0 in /  0 mm 113.0 W/m2 CLR
12:43 12.2 °F /  -11 °C 6.9 °F /  -13.9 °C 1020.5 in /  34554.1 hPa NW 18.5 mph /  29.8 km/h 18.5 mph /  29.8 km/h 70 % 0.0 in /  0 mm 128.0 W/m2 CLR
12:48 12.2 °F /  -11 °C 7.1 °F /  -13.8 °C 1020.5 in /  34554.1 hPa NNW 18.5 mph /  29.8 km/h 18.5 mph /  29.8 km/h 71 % 0.0 in /  0 mm 193.0 W/m2 CLR
12:53 12.8 °F /  -10.7 °C 7.4 °F /  -13.7 °C 1020.2 in /  34544 hPa North 20.9 mph /  33.6 km/h 20.9 mph /  33.6 km/h 70 % 0.0 in /  0 mm 232.0 W/m2 CLR
12:58 12.8 °F /  -10.7 °C 7.4 °F /  -13.7 °C 1020.2 in /  34544 hPa NNW 18.5 mph /  29.8 km/h 18.5 mph /  29.8 km/h 70 % 0.0 in /  0 mm 190.0 W/m2 CLR
13:03 12.8 °F /  -10.7 °C 7.4 °F /  -13.7 °C 1020.2 in /  34544 hPa NNW 25.9 mph /  41.7 km/h 25.9 mph /  41.7 km/h 70 % 0.0 in /  0 mm 216.0 W/m2 CLR
13:08 12.8 °F /  -10.7 °C 7.2 °F /  -13.8 °C 1020.2 in /  34544 hPa NW 25.9 mph /  41.7 km/h 25.9 mph /  41.7 km/h 69 % 0.0 in /  0 mm 193.0 W/m2 CLR
13:13 12.8 °F /  -10.7 °C 7.2 °F /  -13.8 °C 1019.9 in /  34533.8 hPa NW 16.7 mph /  26.9 km/h 16.7 mph /  26.9 km/h 69 % 0.0 in /  0 mm 172.0 W/m2 CLR
13:18 12.8 °F /  -10.7 °C 7.2 °F /  -13.8 °C 1019.9 in /  34533.8 hPa NNW 22.2 mph /  35.7 km/h 22.2 mph /  35.7 km/h 69 % 0.0 in /  0 mm 155.0 W/m2 CLR
13:23 12.8 °F /  -10.7 °C 7.2 °F /  -13.8 °C 1019.9 in /  34533.8 hPa NW 18.5 mph /  29.8 km/h 18.5 mph /  29.8 km/h 69 % 0.0 in /  0 mm 213.0 W/m2 CLR
13:28 12.8 °F /  -10.7 °C 7.2 °F /  -13.8 °C 1019.9 in /  34533.8 hPa NNW 22.2 mph /  35.7 km/h 22.2 mph /  35.7 km/h 69 % 0.0 in /  0 mm 211.0 W/m2 CLR
13:33 13.3 °F /  -10.4 °C 7.6 °F /  -13.6 °C 1019.5 in /  34520.3 hPa North 18.5 mph /  29.8 km/h 18.5 mph /  29.8 km/h 68 % 0.0 in /  0 mm 209.0 W/m2 CLR
13:38 13.3 °F /  -10.4 °C 7.6 °F /  -13.6 °C 1019.5 in /  34520.3 hPa North 18.5 mph /  29.8 km/h 18.5 mph /  29.8 km/h 68 % 0.0 in /  0 mm 178.0 W/m2 CLR
13:43 12.8 °F /  -10.7 °C 7.0 °F /  -13.9 °C 1019.5 in /  34520.3 hPa North 18.5 mph /  29.8 km/h 18.5 mph /  29.8 km/h 68 % 0.0 in /  0 mm 156.0 W/m2 CLR
13:48 12.8 °F /  -10.7 °C 7.0 °F /  -13.9 °C 1019.5 in /  34520.3 hPa North 18.5 mph /  29.8 km/h 18.5 mph /  29.8 km/h 68 % 0.0 in /  0 mm 202.0 W/m2 CLR
13:53 13.3 °F /  -10.4 °C 7.6 °F /  -13.6 °C 1019.5 in /  34520.3 hPa NNW 1.9 mph /  3.1 km/h 1.9 mph /  3.1 km/h 68 % 0.0 in /  0 mm 134.0 W/m2 CLR
13:58 13.3 °F /  -10.4 °C 7.6 °F /  -13.6 °C 1019.5 in /  34520.3 hPa NNW 16.7 mph /  26.9 km/h 16.7 mph /  26.9 km/h 68 % 0.0 in /  0 mm 156.0 W/m2 CLR
14:03 13.3 °F /  -10.4 °C 7.6 °F /  -13.6 °C 1019.2 in /  34510.1 hPa NNW 20.4 mph /  32.8 km/h 20.4 mph /  32.8 km/h 68 % 0.0 in /  0 mm 193.0 W/m2 CLR
14:08 13.3 °F /  -10.4 °C 7.6 °F /  -13.6 °C 1019.2 in /  34510.1 hPa North 16.1 mph /  25.9 km/h 16.1 mph /  25.9 km/h 68 % 0.0 in /  0 mm 171.0 W/m2 CLR
14:13 13.3 °F /  -10.4 °C 7.3 °F /  -13.7 °C 1019.2 in /  34510.1 hPa North 18.5 mph /  29.8 km/h 18.5 mph /  29.8 km/h 67 % 0.0 in /  0 mm 223.0 W/m2 CLR
14:18 13.3 °F /  -10.4 °C 7.3 °F /  -13.7 °C 1019.2 in /  34510.1 hPa North 13.0 mph /  20.9 km/h 13.0 mph /  20.9 km/h 67 % 0.0 in /  0 mm 362.0 W/m2 CLR
14:23 13.9 °F /  -10.1 °C 7.6 °F /  -13.6 °C 1018.8 in /  34496.6 hPa NNW 16.7 mph /  26.9 km/h 16.7 mph /  26.9 km/h 66 % 0.0 in /  0 mm 309.0 W/m2 CLR
14:28 13.9 °F /  -10.1 °C 7.6 °F /  -13.6 °C 1019.2 in /  34510.1 hPa NNW 24.1 mph /  38.8 km/h 24.1 mph /  38.8 km/h 66 % 0.0 in /  0 mm 223.0 W/m2 CLR
14:33 13.9 °F /  -10.1 °C 7.4 °F /  -13.7 °C 1019.2 in /  34510.1 hPa North 16.7 mph /  26.9 km/h 16.7 mph /  26.9 km/h 65 % 0.0 in /  0 mm 139.0 W/m2 CLR
14:38 13.9 °F /  -10.1 °C 7.4 °F /  -13.7 °C 1018.8 in /  34496.6 hPa North 18.5 mph /  29.8 km/h 18.5 mph /  29.8 km/h 65 % 0.0 in /  0 mm 179.0 W/m2 CLR
14:43 13.9 °F /  -10.1 °C 7.4 °F /  -13.7 °C 1018.8 in /  34496.6 hPa North 20.4 mph /  32.8 km/h 20.4 mph /  32.8 km/h 65 % 0.0 in /  0 mm 142.0 W/m2 CLR
14:48 13.3 °F /  -10.4 °C 7.1 °F /  -13.8 °C 1018.8 in /  34496.6 hPa NNW 18.5 mph /  29.8 km/h 18.5 mph /  29.8 km/h 66 % 0.0 in /  0 mm 102.0 W/m2 CLR
14:53 13.3 °F /  -10.4 °C 7.1 °F /  -13.8 °C 1018.8 in /  34496.6 hPa NNW 18.5 mph /  29.8 km/h 18.5 mph /  29.8 km/h 66 % 0.0 in /  0 mm 165.0 W/m2 CLR
14:58 13.3 °F /  -10.4 °C 6.9 °F /  -13.9 °C 1018.5 in /  34486.4 hPa NW 20.4 mph /  32.8 km/h 20.4 mph /  32.8 km/h 65 % 0.0 in /  0 mm 236.0 W/m2 CLR
15:03 13.9 °F /  -10.1 °C 7.6 °F /  -13.6 °C 1018.5 in /  34486.4 hPa NNW 18.5 mph /  29.8 km/h 18.5 mph /  29.8 km/h 66 % 0.0 in /  0 mm 332.0 W/m2 CLR
15:08 13.9 °F /  -10.1 °C 7.4 °F /  -13.7 °C 1018.5 in /  34486.4 hPa NNW 24.1 mph /  38.8 km/h 24.1 mph /  38.8 km/h 65 % 0.0 in /  0 mm 134.0 W/m2 CLR
15:13 13.9 °F /  -10.1 °C 7.4 °F /  -13.7 °C 1018.5 in /  34486.4 hPa North 18.5 mph /  29.8 km/h 18.5 mph /  29.8 km/h 65 % 0.0 in /  0 mm 132.0 W/m2 CLR
15:18 13.9 °F /  -10.1 °C 7.4 °F /  -13.7 °C 1018.8 in /  34496.6 hPa North 18.5 mph /  29.8 km/h 18.5 mph /  29.8 km/h 65 % 0.0 in /  0 mm 151.0 W/m2 CLR
15:23 13.9 °F /  -10.1 °C 7.4 °F /  -13.7 °C 1018.8 in /  34496.6 hPa NNE 17.7 mph /  28.5 km/h 17.7 mph /  28.5 km/h 65 % 0.0 in /  0 mm 155.0 W/m2 CLR
15:28 13.9 °F /  -10.1 °C 7.4 °F /  -13.7 °C 1018.5 in /  34486.4 hPa North 19.3 mph /  31.1 km/h 19.3 mph /  31.1 km/h 65 % 0.0 in /  0 mm 167.0 W/m2 CLR
15:33 13.9 °F /  -10.1 °C 7.4 °F /  -13.7 °C 1018.5 in /  34486.4 hPa NNE 27.8 mph /  44.7 km/h 27.8 mph /  44.7 km/h 65 % 0.0 in /  0 mm 125.0 W/m2 CLR
15:38 13.9 °F /  -10.1 °C 7.4 °F /  -13.7 °C 1018.5 in /  34486.4 hPa North 24.1 mph /  38.8 km/h 24.1 mph /  38.8 km/h 65 % 0.0 in /  0 mm 149.0 W/m2 CLR
15:43 13.9 °F /  -10.1 °C 7.4 °F /  -13.7 °C 1018.5 in /  34486.4 hPa North 31.5 mph /  50.7 km/h 31.5 mph /  50.7 km/h 65 % 0.0 in /  0 mm 135.0 W/m2 CLR
15:48 13.3 °F /  -10.4 °C 6.9 °F /  -13.9 °C 1018.5 in /  34486.4 hPa North 27.8 mph /  44.7 km/h 27.8 mph /  44.7 km/h 65 % 0.0 in /  0 mm 251.0 W/m2 CLR
15:53 13.9 °F /  -10.1 °C 7.4 °F /  -13.7 °C 1018.5 in /  34486.4 hPa North 27.8 mph /  44.7 km/h 27.8 mph /  44.7 km/h 65 % 0.0 in /  0 mm 197.0 W/m2 CLR
15:58 13.9 °F /  -10.1 °C 7.4 °F /  -13.7 °C 1018.5 in /  34486.4 hPa North 24.1 mph /  38.8 km/h 24.1 mph /  38.8 km/h 65 % 0.0 in /  0 mm 221.0 W/m2 CLR
16:03 13.9 °F /  -10.1 °C 7.2 °F /  -13.8 °C 1018.5 in /  34486.4 hPa NNW 29.6 mph /  47.6 km/h 29.6 mph /  47.6 km/h 64 % 0.0 in /  0 mm 169.0 W/m2 CLR
16:08 13.9 °F /  -10.1 °C 7.4 °F /  -13.7 °C 1018.5 in /  34486.4 hPa NNW 20.4 mph /  32.8 km/h 20.4 mph /  32.8 km/h 65 % 0.0 in /  0 mm 165.0 W/m2 CLR
16:13 13.9 °F /  -10.1 °C 7.4 °F /  -13.7 °C 1018.5 in /  34486.4 hPa NNW 24.1 mph /  38.8 km/h 24.1 mph /  38.8 km/h 65 % 0.0 in /  0 mm 171.0 W/m2 CLR
16:18 13.9 °F /  -10.1 °C 7.4 °F /  -13.7 °C 1018.2 in /  34476.3 hPa NNW 29.6 mph /  47.6 km/h 29.6 mph /  47.6 km/h 65 % 0.0 in /  0 mm 179.0 W/m2 CLR
16:23 13.9 °F /  -10.1 °C 7.2 °F /  -13.8 °C 1018.5 in /  34486.4 hPa North 24.1 mph /  38.8 km/h 24.1 mph /  38.8 km/h 64 % 0.0 in /  0 mm 165.0 W/m2 CLR
16:28 13.9 °F /  -10.1 °C 7.4 °F /  -13.7 °C 1018.5 in /  34486.4 hPa North 29.6 mph /  47.6 km/h 29.6 mph /  47.6 km/h 65 % 0.0 in /  0 mm 160.0 W/m2 CLR
16:33 13.9 °F /  -10.1 °C 7.4 °F /  -13.7 °C 1018.2 in /  34476.3 hPa North 22.5 mph /  36.2 km/h 22.7 mph /  36.5 km/h 65 % 0.0 in /  0 mm 123.0 W/m2 CLR
16:38 13.9 °F /  -10.1 °C 7.4 °F /  -13.7 °C 1018.2 in /  34476.3 hPa NNW 24.1 mph /  38.8 km/h 24.1 mph /  38.8 km/h 65 % 0.0 in /  0 mm 144.0 W/m2 CLR
16:43 13.9 °F /  -10.1 °C 7.6 °F /  -13.6 °C 1018.2 in /  34476.3 hPa NNW 18.5 mph /  29.8 km/h 18.5 mph /  29.8 km/h 66 % 0.0 in /  0 mm 135.0 W/m2 CLR
16:49 13.9 °F /  -10.1 °C 7.4 °F /  -13.7 °C 1018.2 in /  34476.3 hPa NNW 22.2 mph /  35.7 km/h 22.2 mph /  35.7 km/h 65 % 0.0 in /  0 mm 123.0 W/m2 CLR
16:54 13.9 °F /  -10.1 °C 7.4 °F /  -13.7 °C 1018.2 in /  34476.3 hPa NNW 18.5 mph /  29.8 km/h 18.5 mph /  29.8 km/h 65 % 0.0 in /  0 mm 127.0 W/m2 CLR
16:59 13.9 °F /  -10.1 °C 7.6 °F /  -13.6 °C 1018.2 in /  34476.3 hPa NNW 25.9 mph /  41.7 km/h 25.9 mph /  41.7 km/h 66 % 0.0 in /  0 mm 146.0 W/m2 CLR
17:04 13.9 °F /  -10.1 °C 7.4 °F /  -13.7 °C 1018.2 in /  34476.3 hPa NNW 37.0 mph /  59.5 km/h 37.0 mph /  59.5 km/h 65 % 0.0 in /  0 mm 128.0 W/m2 CLR
17:09 13.9 °F /  -10.1 °C 7.6 °F /  -13.6 °C 1018.2 in /  34476.3 hPa North 31.5 mph /  50.7 km/h 31.5 mph /  50.7 km/h 66 % 0.0 in /  0 mm 128.0 W/m2 CLR
17:14 13.9 °F /  -10.1 °C 7.6 °F /  -13.6 °C 1018.2 in /  34476.3 hPa NNW 22.2 mph /  35.7 km/h 22.2 mph /  35.7 km/h 66 % 0.0 in /  0 mm 135.0 W/m2 CLR
17:19 13.9 °F /  -10.1 °C 7.6 °F /  -13.6 °C 1018.2 in /  34476.3 hPa NNW 22.2 mph /  35.7 km/h 22.2 mph /  35.7 km/h 66 % 0.0 in /  0 mm 104.0 W/m2 CLR
17:24 13.9 °F /  -10.1 °C 7.6 °F /  -13.6 °C 1018.2 in /  34476.3 hPa NW 22.2 mph /  35.7 km/h 22.2 mph /  35.7 km/h 66 % 0.0 in /  0 mm 100.0 W/m2 CLR
17:29 13.9 °F /  -10.1 °C 7.6 °F /  -13.6 °C 1018.2 in /  34476.3 hPa NNW 16.7 mph /  26.9 km/h 16.7 mph /  26.9 km/h 66 % 0.0 in /  0 mm 95.0 W/m2 CLR
17:34 13.9 °F /  -10.1 °C 7.6 °F /  -13.6 °C 1018.2 in /  34476.3 hPa North 29.0 mph /  46.7 km/h 29.0 mph /  46.7 km/h 66 % 0.0 in /  0 mm 90.0 W/m2 CLR
17:39 13.9 °F /  -10.1 °C 7.6 °F /  -13.6 °C 1018.2 in /  34476.3 hPa NW 25.9 mph /  41.7 km/h 25.9 mph /  41.7 km/h 66 % 0.0 in /  0 mm 91.0 W/m2 CLR
17:44 13.9 °F /  -10.1 °C 7.6 °F /  -13.6 °C 1018.2 in /  34476.3 hPa North 24.1 mph /  38.8 km/h 24.1 mph /  38.8 km/h 66 % 0.0 in /  0 mm 69.0 W/m2 FEW
17:49 13.3 °F /  -10.4 °C 7.3 °F /  -13.7 °C 1018.2 in /  34476.3 hPa NNW 25.9 mph /  41.7 km/h 25.9 mph /  41.7 km/h 67 % 0.0 in /  0 mm 53.0 W/m2 SCT
17:54 13.3 °F /  -10.4 °C 7.3 °F /  -13.7 °C 1018.2 in /  34476.3 hPa North 19.3 mph /  31.1 km/h 19.3 mph /  31.1 km/h 67 % 0.0 in /  0 mm 42.0 W/m2 BKN
17:59 13.3 °F /  -10.4 °C 7.3 °F /  -13.7 °C 1018.2 in /  34476.3 hPa NNE 25.9 mph /  41.7 km/h 25.9 mph /  41.7 km/h 67 % 0.0 in /  0 mm 30.0 W/m2 BKN
18:04 13.3 °F /  -10.4 °C 7.6 °F /  -13.6 °C 1018.2 in /  34476.3 hPa WNW 16.7 mph /  26.9 km/h 16.7 mph /  26.9 km/h 68 % 0.0 in /  0 mm 23.0 W/m2 BKN
18:09 13.3 °F /  -10.4 °C 7.6 °F /  -13.6 °C 1018.2 in /  34476.3 hPa NNW 18.5 mph /  29.8 km/h 18.5 mph /  29.8 km/h 68 % 0.0 in /  0 mm 23.0 W/m2 BKN
18:14 12.8 °F /  -10.7 °C 7.0 °F /  -13.9 °C 1018.5 in /  34486.4 hPa North 9.3 mph /  15 km/h 9.3 mph /  15 km/h 68 % 0.0 in /  0 mm 21.0 W/m2 BKN
18:19 12.8 °F /  -10.7 °C 7.2 °F /  -13.8 °C 1018.5 in /  34486.4 hPa North 18.5 mph /  29.8 km/h 18.5 mph /  29.8 km/h 69 % 0.0 in /  0 mm 16.0 W/m2 BKN
18:24 12.8 °F /  -10.7 °C 7.2 °F /  -13.8 °C 1018.5 in /  34486.4 hPa NW 20.4 mph /  32.8 km/h 20.4 mph /  32.8 km/h 69 % 0.0 in /  0 mm 9.0 W/m2 BKN
18:29 12.8 °F /  -10.7 °C 7.2 °F /  -13.8 °C 1018.5 in /  34486.4 hPa NNW 9.3 mph /  15 km/h 9.3 mph /  15 km/h 69 % 0.0 in /  0 mm 7.0 W/m2 BKN
18:34 12.8 °F /  -10.7 °C 7.4 °F /  -13.7 °C 1018.2 in /  34476.3 hPa NW 12.9 mph /  20.8 km/h 12.9 mph /  20.8 km/h 70 % 0.0 in /  0 mm 7.0 W/m2 BKN
18:39 12.8 °F /  -10.7 °C 7.4 °F /  -13.7 °C 1018.5 in /  34486.4 hPa NNW 16.7 mph /  26.9 km/h 16.7 mph /  26.9 km/h 70 % 0.0 in /  0 mm 5.0 W/m2 OVC
18:44 12.8 °F /  -10.7 °C 7.4 °F /  -13.7 °C 1018.5 in /  34486.4 hPa NNW 11.1 mph /  17.9 km/h 11.1 mph /  17.9 km/h 70 % 0.0 in /  0 mm 0.0 W/m2 OVC
18:49 12.8 °F /  -10.7 °C 7.4 °F /  -13.7 °C 1018.5 in /  34486.4 hPa NW 18.5 mph /  29.8 km/h 18.5 mph /  29.8 km/h 70 % 0.0 in /  0 mm 0.0 W/m2 CLR
18:54 12.8 °F /  -10.7 °C 7.4 °F /  -13.7 °C 1018.5 in /  34486.4 hPa NW 18.5 mph /  29.8 km/h 18.5 mph /  29.8 km/h 70 % 0.0 in /  0 mm 0.0 W/m2 CLR
18:59 12.8 °F /  -10.7 °C 7.4 °F /  -13.7 °C 1018.5 in /  34486.4 hPa NW 18.5 mph /  29.8 km/h 18.5 mph /  29.8 km/h 70 % 0.0 in /  0 mm 0.0 W/m2 CLR
19:04 12.8 °F /  -10.7 °C 7.4 °F /  -13.7 °C 1018.5 in /  34486.4 hPa NW 19.3 mph /  31.1 km/h 19.3 mph /  31.1 km/h 70 % 0.0 in /  0 mm 0.0 W/m2 CLR
19:09 12.8 °F /  -10.7 °C 7.4 °F /  -13.7 °C 1018.5 in /  34486.4 hPa NW 16.7 mph /  26.9 km/h 16.7 mph /  26.9 km/h 70 % 0.0 in /  0 mm 0.0 W/m2 CLR
19:14 12.8 °F /  -10.7 °C 7.4 °F /  -13.7 °C 1018.5 in /  34486.4 hPa NW 14.8 mph /  23.8 km/h 14.8 mph /  23.8 km/h 70 % 0.0 in /  0 mm 0.0 W/m2 CLR
19:19 12.2 °F /  -11 °C 7.1 °F /  -13.8 °C 1018.5 in /  34486.4 hPa NW 13.0 mph /  20.9 km/h 13.0 mph /  20.9 km/h 71 % 0.0 in /  0 mm 0.0 W/m2 CLR
19:24 12.2 °F /  -11 °C 7.1 °F /  -13.8 °C 1018.5 in /  34486.4 hPa NNW 31.5 mph /  50.7 km/h 31.5 mph /  50.7 km/h 71 % 0.0 in /  0 mm 0.0 W/m2 CLR
19:29 12.2 °F /  -11 °C 7.3 °F /  -13.7 °C 1018.5 in /  34486.4 hPa NNW 31.5 mph /  50.7 km/h 31.5 mph /  50.7 km/h 72 % 0.0 in /  0 mm 0.0 W/m2 CLR
19:34 12.2 °F /  -11 °C 7.3 °F /  -13.7 °C 1018.5 in /  34486.4 hPa NW 24.1 mph /  38.8 km/h 24.1 mph /  38.8 km/h 72 % 0.0 in /  0 mm 0.0 W/m2 CLR
19:39 12.2 °F /  -11 °C 7.3 °F /  -13.7 °C 1018.5 in /  34486.4 hPa NW 24.1 mph /  38.8 km/h 24.1 mph /  38.8 km/h 72 % 0.0 in /  0 mm 0.0 W/m2 CLR
19:44 12.2 °F /  -11 °C 7.3 °F /  -13.7 °C 1018.5 in /  34486.4 hPa NNW 22.2 mph /  35.7 km/h 22.2 mph /  35.7 km/h 72 % 0.0 in /  0 mm 0.0 W/m2 CLR
19:49 12.2 °F /  -11 °C 7.3 °F /  -13.7 °C 1018.5 in /  34486.4 hPa NNW 27.8 mph /  44.7 km/h 27.8 mph /  44.7 km/h 72 % 0.0 in /  0 mm 0.0 W/m2 CLR
19:54 12.2 °F /  -11 °C 7.3 °F /  -13.7 °C 1018.5 in /  34486.4 hPa NW 22.2 mph /  35.7 km/h 22.2 mph /  35.7 km/h 72 % 0.0 in /  0 mm 0.0 W/m2 CLR
19:59 11.7 °F /  -11.3 °C 6.8 °F /  -14 °C 1018.5 in /  34486.4 hPa NNW 16.7 mph /  26.9 km/h 16.7 mph /  26.9 km/h 72 % 0.0 in /  0 mm 0.0 W/m2 CLR
20:04 11.7 °F /  -11.3 °C 6.8 °F /  -14 °C 1018.5 in /  34486.4 hPa North 22.5 mph /  36.2 km/h 22.5 mph /  36.2 km/h 72 % 0.0 in /  0 mm 0.0 W/m2 CLR
20:09 11.7 °F /  -11.3 °C 7.0 °F /  -13.9 °C 1018.5 in /  34486.4 hPa NW 24.1 mph /  38.8 km/h 24.1 mph /  38.8 km/h 73 % 0.0 in /  0 mm 0.0 W/m2 CLR
20:14 11.7 °F /  -11.3 °C 7.0 °F /  -13.9 °C 1018.5 in /  34486.4 hPa NW 24.1 mph /  38.8 km/h 24.1 mph /  38.8 km/h 73 % 0.0 in /  0 mm 0.0 W/m2 CLR
20:19 11.7 °F /  -11.3 °C 7.0 °F /  -13.9 °C 1018.5 in /  34486.4 hPa NW 18.5 mph /  29.8 km/h 18.5 mph /  29.8 km/h 73 % 0.0 in /  0 mm 0.0 W/m2 CLR
20:24 11.7 °F /  -11.3 °C 7.0 °F /  -13.9 °C 1018.5 in /  34486.4 hPa NW 25.9 mph /  41.7 km/h 25.9 mph /  41.7 km/h 73 % 0.0 in /  0 mm 0.0 W/m2 CLR
20:29 11.7 °F /  -11.3 °C 7.0 °F /  -13.9 °C 1018.5 in /  34486.4 hPa WNW 25.9 mph /  41.7 km/h 25.9 mph /  41.7 km/h 73 % 0.0 in /  0 mm 0.0 W/m2 CLR
20:34 11.7 °F /  -11.3 °C 7.0 °F /  -13.9 °C 1018.5 in /  34486.4 hPa NW 18.5 mph /  29.8 km/h 18.5 mph /  29.8 km/h 73 % 0.0 in /  0 mm 0.0 W/m2 CLR
20:39 11.7 °F /  -11.3 °C 7.0 °F /  -13.9 °C 1018.5 in /  34486.4 hPa North 22.5 mph /  36.2 km/h 22.5 mph /  36.2 km/h 73 % 0.0 in /  0 mm 0.0 W/m2 CLR
20:44 11.7 °F /  -11.3 °C 7.0 °F /  -13.9 °C 1018.2 in /  34476.3 hPa NW 29.6 mph /  47.6 km/h 29.6 mph /  47.6 km/h 73 % 0.0 in /  0 mm 0.0 W/m2 CLR
20:49 11.7 °F /  -11.3 °C 7.0 °F /  -13.9 °C 1018.2 in /  34476.3 hPa WNW 17.7 mph /  28.5 km/h 17.7 mph /  28.5 km/h 73 % 0.0 in /  0 mm 0.0 W/m2 CLR
20:54 11.7 °F /  -11.3 °C 7.0 °F /  -13.9 °C 1018.2 in /  34476.3 hPa NNW 22.5 mph /  36.2 km/h 22.5 mph /  36.2 km/h 73 % 0.0 in /  0 mm 0.0 W/m2 CLR
20:59 11.7 °F /  -11.3 °C 7.0 °F /  -13.9 °C 1018.5 in /  34486.4 hPa NW 16.1 mph /  25.9 km/h 16.4 mph /  26.4 km/h 73 % 0.0 in /  0 mm 0.0 W/m2 CLR
21:04 11.7 °F /  -11.3 °C 7.0 °F /  -13.9 °C 1018.5 in /  34486.4 hPa NW 18.5 mph /  29.8 km/h 18.5 mph /  29.8 km/h 73 % 0.0 in /  0 mm 0.0 W/m2 CLR
21:09 11.7 °F /  -11.3 °C 7.0 °F /  -13.9 °C 1018.5 in /  34486.4 hPa WNW 18.5 mph /  29.8 km/h 18.5 mph /  29.8 km/h 73 % 0.0 in /  0 mm 0.0 W/m2 CLR
21:14 11.7 °F /  -11.3 °C 7.0 °F /  -13.9 °C 1018.5 in /  34486.4 hPa NW 18.5 mph /  29.8 km/h 18.5 mph /  29.8 km/h 73 % 0.0 in /  0 mm 0.0 W/m2 CLR
21:19 11.7 °F /  -11.3 °C 7.0 °F /  -13.9 °C 1018.5 in /  34486.4 hPa NNW 22.2 mph /  35.7 km/h 22.2 mph /  35.7 km/h 73 % 0.0 in /  0 mm 0.0 W/m2 CLR
21:24 11.7 °F /  -11.3 °C 7.0 °F /  -13.9 °C 1018.5 in /  34486.4 hPa NNW 20.4 mph /  32.8 km/h 20.4 mph /  32.8 km/h 73 % 0.0 in /  0 mm 0.0 W/m2 CLR
21:29 11.7 °F /  -11.3 °C 7.0 °F /  -13.9 °C 1018.5 in /  34486.4 hPa NW 20.9 mph /  33.6 km/h 20.9 mph /  33.6 km/h 73 % 0.0 in /  0 mm 0.0 W/m2 CLR
21:34 11.7 °F /  -11.3 °C 7.0 °F /  -13.9 °C 1018.5 in /  34486.4 hPa NW 16.7 mph /  26.9 km/h 16.7 mph /  26.9 km/h 73 % 0.0 in /  0 mm 0.0 W/m2 CLR
21:40 11.7 °F /  -11.3 °C 7.0 °F /  -13.9 °C 1018.5 in /  34486.4 hPa NW 18.5 mph /  29.8 km/h 18.5 mph /  29.8 km/h 73 % 0.0 in /  0 mm 0.0 W/m2 CLR
21:45 11.7 °F /  -11.3 °C 7.2 °F /  -13.8 °C 1018.5 in /  34486.4 hPa WNW 22.2 mph /  35.7 km/h 22.2 mph /  35.7 km/h 74 % 0.0 in /  0 mm 0.0 W/m2 CLR
21:50 11.7 °F /  -11.3 °C 7.2 °F /  -13.8 °C 1018.5 in /  34486.4 hPa NNW 16.7 mph /  26.9 km/h 16.7 mph /  26.9 km/h 74 % 0.0 in /  0 mm 0.0 W/m2 CLR
21:55 11.7 °F /  -11.3 °C 7.2 °F /  -13.8 °C 1018.5 in /  34486.4 hPa NW 22.2 mph /  35.7 km/h 22.2 mph /  35.7 km/h 74 % 0.0 in /  0 mm 0.0 W/m2 CLR
22:00 11.7 °F /  -11.3 °C 7.2 °F /  -13.8 °C 1018.5 in /  34486.4 hPa NW 22.2 mph /  35.7 km/h 22.2 mph /  35.7 km/h 74 % 0.0 in /  0 mm 0.0 W/m2 CLR
22:05 11.1 °F /  -11.6 °C 6.7 °F /  -14.1 °C 1018.2 in /  34476.3 hPa WNW 18.5 mph /  29.8 km/h 18.5 mph /  29.8 km/h 74 % 0.0 in /  0 mm 0.0 W/m2 CLR
22:10 11.1 °F /  -11.6 °C 6.7 °F /  -14.1 °C 1018.2 in /  34476.3 hPa NW 22.2 mph /  35.7 km/h 22.2 mph /  35.7 km/h 74 % 0.0 in /  0 mm 0.0 W/m2 CLR
22:15 11.1 °F /  -11.6 °C 6.7 °F /  -14.1 °C 1018.2 in /  34476.3 hPa NNW 20.4 mph /  32.8 km/h 20.4 mph /  32.8 km/h 74 % 0.0 in /  0 mm 0.0 W/m2 CLR
22:20 11.1 °F /  -11.6 °C 6.7 °F /  -14.1 °C 1018.2 in /  34476.3 hPa NW 24.1 mph /  38.8 km/h 24.1 mph /  38.8 km/h 74 % 0.0 in /  0 mm 0.0 W/m2 CLR
22:25 11.1 °F /  -11.6 °C 6.7 °F /  -14.1 °C 1018.2 in /  34476.3 hPa NNW 20.9 mph /  33.6 km/h 20.9 mph /  33.6 km/h 74 % 0.0 in /  0 mm 0.0 W/m2 CLR
22:30 11.1 °F /  -11.6 °C 6.7 °F /  -14.1 °C 1018.2 in /  34476.3 hPa NNW 22.5 mph /  36.2 km/h 22.5 mph /  36.2 km/h 74 % 0.0 in /  0 mm 0.0 W/m2 CLR
22:35 11.1 °F /  -11.6 °C 6.7 °F /  -14.1 °C 1018.2 in /  34476.3 hPa NW 19.3 mph /  31.1 km/h 19.3 mph /  31.1 km/h 74 % 0.0 in /  0 mm 0.0 W/m2 CLR
22:40 11.1 °F /  -11.6 °C 6.7 °F /  -14.1 °C 1018.2 in /  34476.3 hPa NW 16.1 mph /  25.9 km/h 16.1 mph /  25.9 km/h 74 % 0.0 in /  0 mm 0.0 W/m2 CLR
22:45 11.1 °F /  -11.6 °C 6.7 °F /  -14.1 °C 1018.2 in /  34476.3 hPa NW 18.5 mph /  29.8 km/h 18.5 mph /  29.8 km/h 74 % 0.0 in /  0 mm 0.0 W/m2 CLR
22:50 11.1 °F /  -11.6 °C 6.7 °F /  -14.1 °C 1018.2 in /  34476.3 hPa NW 19.3 mph /  31.1 km/h 19.3 mph /  31.1 km/h 74 % 0.0 in /  0 mm 0.0 W/m2 CLR
22:55 11.1 °F /  -11.6 °C 6.7 °F /  -14.1 °C 1018.2 in /  34476.3 hPa West 16.7 mph /  26.9 km/h 16.7 mph /  26.9 km/h 74 % 0.0 in /  0 mm 0.0 W/m2 CLR
23:00 11.1 °F /  -11.6 °C 6.7 °F /  -14.1 °C 1018.5 in /  34486.4 hPa NW 18.5 mph /  29.8 km/h 18.5 mph /  29.8 km/h 74 % 0.0 in /  0 mm 0.0 W/m2 CLR
23:05 11.1 °F /  -11.6 °C 6.7 °F /  -14.1 °C 1018.2 in /  34476.3 hPa WNW 18.5 mph /  29.8 km/h 18.5 mph /  29.8 km/h 74 % 0.0 in /  0 mm 0.0 W/m2 CLR
23:10 11.1 °F /  -11.6 °C 6.7 °F /  -14.1 °C 1018.2 in /  34476.3 hPa WNW 18.5 mph /  29.8 km/h 18.8 mph /  30.3 km/h 74 % 0.0 in /  0 mm 0.0 W/m2 CLR
23:15 11.1 °F /  -11.6 °C 6.7 °F /  -14.1 °C 1018.2 in /  34476.3 hPa NNW 17.7 mph /  28.5 km/h 17.7 mph /  28.5 km/h 74 % 0.0 in /  0 mm 0.0 W/m2 CLR
23:20 11.1 °F /  -11.6 °C 6.7 °F /  -14.1 °C 1018.2 in /  34476.3 hPa NW 20.4 mph /  32.8 km/h 20.4 mph /  32.8 km/h 74 % 0.0 in /  0 mm 0.0 W/m2 CLR
23:25 11.1 °F /  -11.6 °C 6.7 °F /  -14.1 °C 1018.2 in /  34476.3 hPa NNW 20.9 mph /  33.6 km/h 20.9 mph /  33.6 km/h 74 % 0.0 in /  0 mm 0.0 W/m2 CLR
23:30 11.1 °F /  -11.6 °C 6.8 °F /  -14 °C 1018.2 in /  34476.3 hPa NW 24.1 mph /  38.8 km/h 24.1 mph /  38.8 km/h 75 % 0.0 in /  0 mm 0.0 W/m2 CLR
23:35 11.1 °F /  -11.6 °C 6.8 °F /  -14 °C 1018.2 in /  34476.3 hPa NNW 22.2 mph /  35.7 km/h 22.2 mph /  35.7 km/h 75 % 0.0 in /  0 mm 0.0 W/m2 CLR
23:40 11.1 °F /  -11.6 °C 6.8 °F /  -14 °C 1018.2 in /  34476.3 hPa NW 16.7 mph /  26.9 km/h 16.7 mph /  26.9 km/h 75 % 0.0 in /  0 mm 0.0 W/m2 CLR
23:45 11.1 °F /  -11.6 °C 6.8 °F /  -14 °C 1018.2 in /  34476.3 hPa WNW 27.8 mph /  44.7 km/h 27.8 mph /  44.7 km/h 75 % 0.0 in /  0 mm 0.0 W/m2 CLR
23:50 11.1 °F /  -11.6 °C 6.8 °F /  -14 °C 1017.8 in /  34462.7 hPa NW 24.1 mph /  38.8 km/h 24.1 mph /  38.8 km/h 75 % 0.0 in /  0 mm 0.0 W/m2 CLR
23:55 11.1 °F /  -11.6 °C 6.8 °F /  -14 °C 1018.2 in /  34476.3 hPa NW 25.9 mph /  41.7 km/h 25.9 mph /  41.7 km/h 75 % 0.0 in /  0 mm 0.0 W/m2 CLR
Lo Temps de Massalio
Compliments of Weather Underground - 1.25 mb